Tarrant West's Hourly Summary for Sunday, July 8, 2018
Hour Temp
(f)
RH
(%)
Solar Rad.
(MJ/m2)
Rainfall
(in)
Wind
(mph)
7/8/2018 12:00 AM 83 56 0 0 8.44
7/8/2018 1:00 AM 80 63 0 0 5.43
7/8/2018 2:00 AM 77 71 0 0 3.73
7/8/2018 3:00 AM 76 75 0 0 4.38
7/8/2018 4:00 AM 75 80 0 0 3.53
7/8/2018 5:00 AM 74 82 0 0 2.17
7/8/2018 6:00 AM 73 85 0.01 0 2.7
7/8/2018 7:00 AM 75 80 0.32 0 2.59
7/8/2018 8:00 AM 79 72 0.85 0 3.51
7/8/2018 9:00 AM 82 64 1.63 0 6.35
7/8/2018 10:00 AM 84 57 1.95 0 7.11
7/8/2018 11:00 AM 86 53 2.53 0 6.77
7/8/2018 12:00 PM 87 48 2.55 0 8.2
7/8/2018 1:00 PM 89 44 2.69 0 8.4
7/8/2018 2:00 PM 90 41 2.25 0 8.58
7/8/2018 3:00 PM 92 38 2.09 0 10.06
7/8/2018 4:00 PM 91 38 1.58 0 10.1
7/8/2018 5:00 PM 92 35 1.64 0 10.64
7/8/2018 6:00 PM 90 42 1.07 0 12.14
7/8/2018 7:00 PM 87 49 0.46 0 10.15
7/8/2018 8:00 PM 84 53 0.05 0 7.6
7/8/2018 9:00 PM 81 63 0 0 5.17
7/8/2018 10:00 PM 78 68 0 0 4.83
7/8/2018 11:00 PM 77 70 0 0 3.38
Data Summary 82 59 21.67 0.00 6.50